Time;durP1;ratioP1;P1;durP2;ratioP2;P2;SDS_P1;SDS_P2;PMS_P1;PMS_P2;Temp;Humidity;BMP_temperature;BMP_pressure;BME280_temperature;BME280_humidity;BME280_pressure;Samples;Min_cycle;Max_cycle;Signal;HPM_P1;HPM_P2
2022/04/25 00:02:50;;;;;;;9.40;3.88;;;;;;;7.09;80.42;100185.38;6001922;28;20030;-69
2022/04/25 00:05:45;;;;;;;8.60;3.78;;;;;;;7.02;80.17;100195.63;6011348;28;20079;-69
2022/04/25 00:08:41;;;;;;;10.98;3.65;;;;;;;7.27;80.64;100201.34;6005299;28;20034;-68
2022/04/25 00:11:37;;;;;;;13.38;3.95;;;;;;;7.32;79.26;100217.59;6002873;28;20089;-69
2022/04/25 00:14:32;;;;;;;10.23;4.00;;;;;;;7.29;79.13;100215.22;6002087;28;20039;-69
2022/04/25 00:17:27;;;;;;;12.13;4.53;;;;;;;7.36;79.51;100217.19;6002296;28;20039;-69
2022/04/25 00:20:23;;;;;;;9.53;3.67;;;;;;;7.33;79.58;100216.63;6001373;28;20482;-69
2022/04/25 00:23:18;;;;;;;10.60;3.17;;;;;;;7.36;79.73;100213.72;6002091;28;20022;-68
2022/04/25 00:26:13;;;;;;;9.33;3.50;;;;;;;7.29;80.05;100218.69;6002132;28;20054;-68
2022/04/25 00:29:08;;;;;;;11.57;4.00;;;;;;;7.24;79.69;100214.81;6001365;28;20045;-69
2022/04/25 00:32:04;;;;;;;10.40;3.73;;;;;;;7.25;80.05;100219.13;6001832;28;20470;-68
2022/04/25 00:35:02;;;;;;;8.90;3.72;;;;;;;7.23;80.40;100218.44;6001671;28;20093;-69
2022/04/25 00:37:58;;;;;;;9.75;3.72;;;;;;;7.19;79.95;100218.69;6002072;28;20112;-69
2022/04/25 00:40:53;;;;;;;11.17;3.70;;;;;;;7.17;80.59;100225.88;6001378;28;20107;-69
2022/04/25 00:43:48;;;;;;;9.33;3.63;;;;;;;7.25;80.22;100221.75;6001660;28;20653;-69
2022/04/25 00:46:47;;;;;;;8.43;3.33;;;;;;;7.23;80.19;100221.06;6001837;28;20038;-69
2022/04/25 00:49:42;;;;;;;16.33;4.60;;;;;;;7.17;80.70;100225.06;5984699;28;20038;-69
2022/04/25 00:52:38;;;;;;;8.90;3.57;;;;;;;7.20;81.17;100225.63;6000780;28;20035;-69
2022/04/25 00:55:36;;;;;;;9.77;4.15;;;;;;;7.31;80.79;100229.94;6001770;28;20062;-69
2022/04/25 00:58:31;;;;;;;7.68;3.70;;;;;;;7.44;81.00;100227.03;6001259;28;20083;-69
2022/04/25 01:01:28;;;;;;;11.07;4.10;;;;;;;7.49;79.38;100232.75;5983470;28;20491;-69
2022/04/25 01:04:23;;;;;;;10.20;4.55;;;;;;;7.20;80.11;100236.16;5984676;28;20029;-68
2022/04/25 01:07:18;;;;;;;16.90;4.67;;;;;;;7.32;80.25;100233.41;6014664;28;20035;-69
2022/04/25 01:10:14;;;;;;;13.20;4.43;;;;;;;7.13;81.41;100234.22;6005544;28;20038;-69
2022/04/25 01:13:11;;;;;;;11.00;5.17;;;;;;;7.12;81.15;100236.00;6004238;28;20042;-69
2022/04/25 01:16:06;;;;;;;10.73;4.82;;;;;;;7.23;81.72;100239.53;6001713;28;20446;-69
2022/04/25 01:19:02;;;;;;;10.30;3.93;;;;;;;7.36;80.73;100240.09;6001411;28;20034;-68
2022/04/25 01:22:52;;;;;;;10.30;3.93;;;;;;;7.35;81.00;100243.69;6005099;28;20122;-68
2022/04/25 01:29:01;;;;;;;;;;;;;;;7.43;81.46;100243.84;6005034;28;20027;-69
2022/04/25 01:31:57;;;;;;;8.03;3.50;;;;;;;7.27;81.27;100244.38;5986937;28;19918;-69
2022/04/25 01:34:52;;;;;;;10.63;4.37;;;;;;;7.22;81.21;100243.97;6005665;28;20113;-69
2022/04/25 01:37:47;;;;;;;10.63;4.30;;;;;;;7.07;81.64;100243.50;6004878;28;20285;-69
2022/04/25 01:40:43;;;;;;;7.83;4.20;;;;;;;7.19;81.02;100249.50;6004574;28;20038;-69
2022/04/25 01:43:38;;;;;;;10.27;4.30;;;;;;;7.25;82.04;100242.84;6005415;28;20098;-69
2022/04/25 01:46:34;;;;;;;11.93;3.80;;;;;;;7.20;81.96;100248.53;6005217;28;20066;-69
2022/04/25 01:49:29;;;;;;;10.32;4.00;;;;;;;7.21;81.51;100247.56;6014153;28;20081;-69
2022/04/25 01:52:28;;;;;;;11.13;4.00;;;;;;;7.15;81.88;100253.34;6004182;28;20034;-69
2022/04/25 01:55:23;;;;;;;10.15;4.57;;;;;;;7.17;81.84;100251.44;6004904;28;20529;-69
2022/04/25 01:58:19;;;;;;;11.18;4.45;;;;;;;7.23;81.39;100255.34;6004998;28;20065;-69
2022/04/25 02:01:14;;;;;;;10.20;4.55;;;;;;;7.23;81.57;100256.16;6004268;28;20046;-69
2022/04/25 02:04:10;;;;;;;11.10;4.40;;;;;;;7.14;82.38;100247.28;6005070;28;20049;-69
2022/04/25 02:07:07;;;;;;;8.70;4.18;;;;;;;7.23;81.73;100247.44;5988544;28;20050;-69
2022/04/25 02:10:03;;;;;;;11.25;4.32;;;;;;;7.13;81.55;100240.31;6003830;28;20034;-69
2022/04/25 02:12:58;;;;;;;10.80;4.15;;;;;;;7.01;82.60;100251.13;6017281;28;20030;-69
2022/04/25 02:15:55;;;;;;;12.97;5.30;;;;;;;6.97;83.08;100255.81;6004563;28;20035;-69
2022/04/25 02:18:52;;;;;;;11.35;4.65;;;;;;;6.86;83.01;100249.81;6004442;28;20127;-68
2022/04/25 02:21:47;;;;;;;11.23;4.88;;;;;;;6.86;83.81;100263.84;6003806;28;20110;-68
2022/04/25 02:24:43;;;;;;;11.20;4.93;;;;;;;6.73;83.45;100257.13;6005870;28;20030;-69
2022/04/25 02:27:38;;;;;;;13.73;5.00;;;;;;;6.91;83.92;100261.63;6004024;28;20107;-69
2022/04/25 02:30:34;;;;;;;11.55;5.72;;;;;;;6.98;83.56;100268.06;6003627;28;20105;-69
2022/04/25 02:33:31;;;;;;;11.40;4.97;;;;;;;6.89;83.60;100268.00;6005590;28;20066;-68
2022/04/25 02:36:26;;;;;;;9.98;4.53;;;;;;;6.89;84.51;100274.13;6013081;28;20074;-68
2022/04/25 02:39:22;;;;;;;9.83;5.03;;;;;;;6.90;84.61;100275.75;6003963;28;20047;-69
2022/04/25 02:42:17;;;;;;;11.52;5.03;;;;;;;6.87;84.88;100270.78;6003114;28;20462;-69
2022/04/25 02:45:13;;;;;;;12.37;4.83;;;;;;;6.77;84.72;100275.16;6003806;28;20038;-69
2022/04/25 02:48:08;;;;;;;10.25;4.57;;;;;;;6.83;85.53;100279.91;6009495;28;20022;-68
2022/04/25 02:51:04;;;;;;;8.57;4.00;;;;;;;6.62;84.45;100281.75;6002694;28;20042;-69
2022/04/25 02:54:00;;;;;;;9.05;4.45;;;;;;;6.47;84.94;100281.25;6003807;28;20027;-68
2022/04/25 02:56:55;;;;;;;9.40;4.57;;;;;;;6.51;85.31;100287.13;6003339;28;20046;-68
2022/04/25 02:59:51;;;;;;;9.40;4.35;;;;;;;6.51;85.24;100287.13;6003720;28;20086;-68
2022/04/25 03:02:46;;;;;;;10.73;4.77;;;;;;;6.62;85.35;100273.88;6001051;28;20035;-68
2022/04/25 03:05:43;;;;;;;13.13;4.43;;;;;;;6.48;84.69;100279.47;6010225;28;20042;-69
2022/04/25 03:08:39;;;;;;;9.20;4.10;;;;;;;6.57;85.12;100286.59;6003661;28;20038;-69
2022/04/25 03:11:35;;;;;;;8.55;4.13;;;;;;;6.63;85.54;100288.72;6017073;28;20066;-69
2022/04/25 03:14:31;;;;;;;10.25;4.60;;;;;;;6.59;85.43;100284.66;6012370;28;20033;-68
2022/04/25 03:17:26;;;;;;;10.30;4.93;;;;;;;6.57;84.65;100278.69;6003218;28;20483;-69
2022/04/25 03:20:23;;;;;;;12.13;4.57;;;;;;;6.63;84.81;100270.28;6002806;28;20038;-68
2022/04/25 03:23:20;;;;;;;10.07;4.53;;;;;;;6.76;84.67;100278.78;6008328;28;20038;-69
2022/04/25 03:26:15;;;;;;;10.45;4.50;;;;;;;6.79;84.49;100278.53;6002991;28;20085;-69
2022/04/25 03:29:11;;;;;;;10.03;4.07;;;;;;;6.76;84.71;100289.31;6002725;28;20046;-68
2022/04/25 03:32:07;;;;;;;11.48;4.57;;;;;;;6.61;84.55;100290.63;6002357;28;20027;-68
2022/04/25 03:35:03;;;;;;;9.98;5.00;;;;;;;6.58;85.62;100293.50;6002774;28;20054;-69
2022/04/25 03:37:59;;;;;;;13.05;5.50;;;;;;;6.51;85.26;100297.66;6003016;28;20081;-68
2022/04/25 03:40:54;;;;;;;10.25;5.00;;;;;;;6.43;85.77;100286.94;6001724;28;20039;-68
2022/04/25 03:43:49;;;;;;;12.07;5.07;;;;;;;6.52;85.49;100291.44;6001985;28;20031;-68
2022/04/25 03:46:45;;;;;;;11.23;5.33;;;;;;;6.53;85.42;100295.72;6002614;28;20445;-68
2022/04/25 03:49:41;;;;;;;8.97;4.13;;;;;;;6.55;85.24;100293.78;6002433;28;20031;-68
2022/04/25 03:52:37;;;;;;;8.82;3.85;;;;;;;6.52;84.49;100289.59;6001716;28;20046;-69
2022/04/25 03:58:47;;;;;;;8.57;4.28;;;;;;;6.53;84.19;100303.63;5997611;28;20398;-68
2022/04/25 04:01:43;;;;;;;9.83;4.13;;;;;;;6.46;84.78;100299.84;6001586;28;20038;-68
2022/04/25 04:04:38;;;;;;;11.87;4.87;;;;;;;6.55;85.82;100302.50;6002437;28;20023;-69
2022/04/25 04:07:33;;;;;;;10.37;4.33;;;;;;;6.44;85.96;100305.22;6011881;28;20282;-69
2022/04/25 04:10:28;;;;;;;11.43;5.23;;;;;;;6.40;87.33;100303.00;6001945;28;20030;-70
2022/04/25 04:13:24;;;;;;;11.10;5.40;;;;;;;6.27;87.76;100308.47;6003180;28;20038;-69
2022/04/25 04:16:19;;;;;;;11.23;5.10;;;;;;;6.34;87.79;100314.03;6002059;28;20081;-69
2022/04/25 04:19:14;;;;;;;9.20;4.57;;;;;;;6.39;88.21;100311.84;6002733;28;20709;-69
2022/04/25 04:22:10;;;;;;;10.00;5.13;;;;;;;6.36;88.63;100310.31;6000902;28;20278;-69
2022/04/25 04:25:16;;;;;;;12.38;4.25;;;;;;;6.39;88.93;100328.47;6002383;28;20057;-70
2022/04/25 04:28:12;;;;;;;12.93;5.22;;;;;;;6.28;89.18;100327.69;6002147;28;20027;-70
2022/04/25 04:31:07;;;;;;;12.97;4.90;;;;;;;6.22;89.71;100331.72;6001354;28;20074;-69
2022/04/25 04:34:02;;;;;;;13.50;5.17;;;;;;;6.07;89.71;100332.97;6002449;28;20030;-69
2022/04/25 04:36:59;;;;;;;13.70;5.83;;;;;;;6.07;90.58;100329.50;6000855;28;20466;-69
2022/04/25 04:40:28;;;;;;;11.35;5.63;;;;;;;6.07;90.56;100347.91;6002344;28;20062;-69
2022/04/25 04:43:10;;;;;;;16.17;5.32;;;;;;;6.13;91.57;100352.69;6001529;28;20038;-69
2022/04/25 04:46:05;;;;;;;17.67;6.27;;;;;;;6.03;91.59;100346.50;6001931;28;20470;-70
2022/04/25 04:49:00;;;;;;;17.43;6.60;;;;;;;5.97;92.50;100359.22;6001277;28;20557;-69
2022/04/25 04:51:55;;;;;;;20.13;7.10;;;;;;;5.96;92.09;100357.53;6000195;28;20034;-69
2022/04/25 04:54:51;;;;;;;18.63;6.80;;;;;;;5.88;92.54;100356.47;6003375;28;20041;-70
2022/04/25 04:57:47;;;;;;;18.30;7.03;;;;;;;6.03;92.71;100360.50;6006159;28;20463;-69
2022/04/25 05:00:44;;;;;;;14.00;6.70;;;;;;;5.99;92.96;100367.81;6005876;28;20086;-69
2022/04/25 05:03:41;;;;;;;15.60;5.85;;;;;;;6.08;93.49;100362.75;6006154;28;20042;-69
2022/04/25 05:06:36;;;;;;;16.60;6.50;;;;;;;6.03;93.21;100359.66;6008714;28;20041;-69
2022/04/25 05:09:32;;;;;;;13.30;6.47;;;;;;;6.04;93.34;100369.22;6006301;28;20457;-69
2022/04/25 05:12:27;;;;;;;11.60;5.93;;;;;;;6.03;93.80;100372.81;6005109;28;20046;-68
2022/04/25 05:15:23;;;;;;;13.68;5.38;;;;;;;5.85;93.64;100373.34;6006273;28;20035;-69
2022/04/25 05:18:19;;;;;;;15.43;5.95;;;;;;;5.97;93.70;100380.28;6005548;28;20042;-70
2022/04/25 05:21:14;;;;;;;14.48;5.85;;;;;;;5.81;93.45;100374.56;6004781;28;20070;-69
2022/04/25 05:24:10;;;;;;;16.40;6.75;;;;;;;5.82;94.06;100370.94;6006133;28;20073;-69
2022/04/25 05:27:05;;;;;;;13.73;5.60;;;;;;;5.98;94.47;100381.06;6005440;28;20042;-70
2022/04/25 05:30:01;;;;;;;16.97;7.37;;;;;;;5.93;94.34;100378.84;6005237;28;20431;-69
2022/04/25 05:32:57;;;;;;;14.53;5.70;;;;;;;5.92;94.70;100377.16;6005267;28;20284;-69
2022/04/25 05:35:53;;;;;;;18.67;6.75;;;;;;;5.99;94.07;100388.88;6016356;28;20125;-69
2022/04/25 05:38:48;;;;;;;17.17;6.83;;;;;;;5.95;94.43;100390.06;6005647;28;20039;-69
2022/04/25 05:41:46;;;;;;;14.50;6.87;;;;;;;5.89;94.89;100387.94;6004564;28;20043;-69
2022/04/25 05:44:41;;;;;;;15.73;7.03;;;;;;;5.84;94.21;100403.22;6005326;28;20031;-69
2022/04/25 05:47:37;;;;;;;14.93;7.00;;;;;;;5.76;95.27;100403.00;6006144;28;20039;-69
2022/04/25 05:54:00;;;;;;;15.07;7.07;;;;;;;5.72;94.72;100406.84;5961944;28;20050;-68
2022/04/25 05:56:55;;;;;;;16.52;7.70;;;;;;;5.75;94.92;100406.59;6003826;28;20039;-68
2022/04/25 05:59:50;;;;;;;14.40;6.70;;;;;;;6.09;95.06;100406.56;6008900;28;20089;-68
2022/04/25 06:02:47;;;;;;;14.50;6.50;;;;;;;5.93;95.32;100415.66;6011894;28;20125;-68
2022/04/25 06:05:42;;;;;;;15.65;7.28;;;;;;;5.81;95.29;100411.38;6015391;28;20456;-69
2022/04/25 06:08:37;;;;;;;12.13;5.37;;;;;;;5.86;94.49;100414.50;6008837;28;20042;-69
2022/04/25 06:11:32;;;;;;;12.53;5.50;;;;;;;5.88;95.15;100422.25;6007193;28;20026;-68
2022/04/25 06:14:30;;;;;;;13.23;5.10;;;;;;;6.01;94.90;100422.94;6010420;28;20034;-68
2022/04/25 06:17:26;;;;;;;12.13;4.90;;;;;;;6.08;94.60;100433.81;6004739;28;20054;-68
2022/04/25 06:20:22;;;;;;;15.50;6.60;;;;;;;5.95;94.59;100434.78;6004166;28;20045;-68
2022/04/25 06:23:18;;;;;;;12.88;5.63;;;;;;;5.97;94.42;100432.91;6004122;28;20089;-68
2022/04/25 06:26:13;;;;;;;8.43;4.43;;;;;;;6.23;95.20;100427.28;6004400;28;20081;-68
2022/04/25 06:29:08;;;;;;;13.27;4.63;;;;;;;5.96;93.87;100447.00;6003903;28;20043;-68
2022/04/25 06:32:05;;;;;;;12.97;5.17;;;;;;;6.12;93.95;100429.97;6003470;28;20486;-69
2022/04/25 06:35:00;;;;;;;9.00;4.68;;;;;;;6.13;94.79;100434.28;6004554;28;20049;-68
2022/04/25 06:37:56;;;;;;;12.70;5.30;;;;;;;6.21;94.59;100440.59;6003484;28;20475;-68
2022/04/25 06:40:51;;;;;;;12.93;4.60;;;;;;;6.15;94.44;100446.34;6003661;28;20058;-68
2022/04/25 06:43:46;;;;;;;10.87;5.03;;;;;;;6.02;93.27;100440.41;6003890;28;20948;-68
2022/04/25 06:46:43;;;;;;;10.13;5.00;;;;;;;6.01;93.55;100443.19;6004784;28;20070;-68
2022/04/25 06:49:38;;;;;;;14.60;6.32;;;;;;;6.21;93.63;100456.41;6003792;28;20042;-68
2022/04/25 06:52:33;;;;;;;15.60;6.20;;;;;;;6.24;93.55;100450.03;6002369;28;20039;-69
2022/04/25 06:55:29;;;;;;;15.57;6.13;;;;;;;6.31;93.53;100456.47;6003907;28;20258;-68
2022/04/25 06:58:26;;;;;;;11.83;5.50;;;;;;;6.48;93.08;100454.13;6003677;28;20051;-69
2022/04/25 07:01:21;;;;;;;14.27;5.40;;;;;;;6.18;93.25;100459.28;6002503;28;20469;-68
2022/04/25 07:04:17;;;;;;;11.50;4.90;;;;;;;6.27;93.62;100463.81;6003752;28;20089;-69
2022/04/25 07:07:13;;;;;;;15.57;5.40;;;;;;;6.18;93.01;100461.91;6006668;28;20037;-69
2022/04/25 07:10:08;;;;;;;14.00;6.50;;;;;;;6.22;93.42;100468.59;6002702;28;20390;-69
2022/04/25 07:13:03;;;;;;;14.27;6.18;;;;;;;6.22;93.16;100471.25;6010084;28;20386;-69
2022/04/25 07:15:59;;;;;;;14.80;6.40;;;;;;;6.13;92.99;100464.06;6003284;28;20070;-69
2022/04/25 07:18:55;;;;;;;15.30;7.17;;;;;;;6.01;92.64;100451.09;6003100;28;20031;-69
2022/04/25 07:31:32;;;;;;;12.32;5.82;;;;;;;6.55;91.86;100480.78;6001920;28;20042;-69
2022/04/25 07:34:27;;;;;;;15.10;6.40;;;;;;;6.41;91.10;100478.47;6003042;28;20386;-69
2022/04/25 07:37:22;;;;;;;13.20;5.63;;;;;;;6.39;91.85;100472.47;6002999;28;20053;-69
2022/04/25 07:40:18;;;;;;;13.50;5.10;;;;;;;6.46;91.70;100481.56;6001201;28;20045;-69
2022/04/25 07:43:14;;;;;;;13.30;6.18;;;;;;;6.49;91.73;100481.31;6009345;28;20023;-69
2022/04/25 07:46:09;;;;;;;13.90;5.45;;;;;;;6.66;91.98;100488.66;6001472;28;20046;-69
2022/04/25 07:49:04;;;;;;;15.47;6.40;;;;;;;6.72;91.82;100490.78;6001900;28;20379;-69
2022/04/25 07:52:00;;;;;;;16.43;6.13;;;;;;;6.67;91.08;100490.34;6001778;28;20054;-70
2022/04/25 07:54:56;;;;;;;15.32;6.25;;;;;;;6.91;90.90;100484.81;6002186;28;20054;-70
2022/04/25 07:57:51;;;;;;;16.60;5.63;;;;;;;7.06;89.92;100494.94;6002853;28;20031;-70
2022/04/25 08:00:48;;;;;;;10.00;4.50;;;;;;;7.22;89.18;100494.47;6001817;28;20047;-69
2022/04/25 08:03:44;;;;;;;13.85;5.10;;;;;;;7.20;88.65;100493.75;6002808;28;20046;-69
2022/04/25 08:06:39;;;;;;;11.80;5.17;;;;;;;7.15;88.03;100506.47;6015592;28;20093;-70
2022/04/25 08:09:35;;;;;;;14.15;5.05;;;;;;;7.25;87.90;100501.28;6001772;28;20410;-70
2022/04/25 08:18:58;;;;;;;15.40;5.68;;;;;;;7.26;88.34;100513.47;5989994;28;20673;-69
2022/04/25 08:21:54;;;;;;;8.82;4.65;;;;;;;7.39;87.51;100507.03;6001191;28;20031;-69
2022/04/25 08:24:51;;;;;;;10.63;5.07;;;;;;;7.42;86.92;100505.97;6001867;28;20045;-69
2022/04/25 08:27:46;;;;;;;13.32;5.68;;;;;;;7.35;87.09;100515.34;6002517;28;20035;-69
2022/04/25 08:30:42;;;;;;;9.87;4.07;;;;;;;7.54;86.83;100523.38;6003765;28;20030;-70
2022/04/25 08:33:37;;;;;;;9.98;5.28;;;;;;;7.47;86.43;100524.88;6007148;28;20513;-69
2022/04/25 08:36:32;;;;;;;9.87;4.93;;;;;;;7.53;87.00;100529.59;6006631;28;20497;-69
2022/04/25 08:39:28;;;;;;;9.07;4.90;;;;;;;7.89;86.99;100523.78;6007112;28;20030;-69
2022/04/25 08:42:23;;;;;;;12.17;4.57;;;;;;;7.87;86.15;100530.19;6006376;28;20037;-69
2022/04/25 08:45:20;;;;;;;12.10;4.97;;;;;;;7.59;85.80;100542.28;6006938;28;20478;-70
2022/04/25 08:48:16;;;;;;;14.00;5.78;;;;;;;7.53;87.11;100542.78;6013721;28;20046;-69
2022/04/25 08:51:12;;;;;;;14.65;5.60;;;;;;;7.51;87.24;100550.84;5991831;28;20115;-69
2022/04/25 08:54:10;;;;;;;11.18;4.93;;;;;;;7.25;86.92;100548.75;6006685;28;20061;-69
2022/04/25 08:57:06;;;;;;;13.10;5.50;;;;;;;7.35;87.66;100550.47;6006448;28;20505;-69
2022/04/25 09:00:04;;;;;;;17.07;5.17;;;;;;;7.22;87.23;100559.56;6005934;28;20038;-69
2022/04/25 09:03:00;;;;;;;11.50;5.53;;;;;;;7.50;87.96;100558.91;6005501;28;20387;-69
2022/04/25 09:05:55;;;;;;;13.30;5.18;;;;;;;7.57;86.79;100562.69;6008444;28;20069;-69
2022/04/25 09:08:51;;;;;;;13.60;4.85;;;;;;;7.73;86.86;100555.97;6006197;28;20484;-70
2022/04/25 09:15:00;;;;;;;;;;;;;;;7.66;86.63;100572.47;6012070;28;20027;-69
2022/04/25 09:17:55;;;;;;;11.87;4.47;;;;;;;7.93;86.70;100579.81;5988446;28;19914;-69
2022/04/25 09:20:53;;;;;;;8.23;4.60;;;;;;;7.73;85.72;100576.25;6005480;28;20282;-69
2022/04/25 09:23:48;;;;;;;11.18;5.40;;;;;;;8.09;85.02;100578.34;5988914;28;20031;-69
2022/04/25 09:26:44;;;;;;;10.20;4.80;;;;;;;7.88;84.29;100582.81;6005831;28;20046;-69
2022/04/25 09:29:41;;;;;;;12.60;5.05;;;;;;;7.83;84.18;100586.88;6005986;28;20505;-69
2022/04/25 09:32:36;;;;;;;10.43;5.30;;;;;;;8.12;85.09;100588.66;6004461;28;20101;-69
2022/04/25 09:35:33;;;;;;;11.90;5.90;;;;;;;7.90;84.85;100596.75;6005975;28;20573;-69
2022/04/25 09:38:30;;;;;;;17.80;5.32;;;;;;;7.90;85.05;100588.84;6005954;28;20074;-69
2022/04/25 09:41:32;;;;;;;10.43;5.18;;;;;;;7.83;84.40;100597.41;6004770;28;20151;-69
2022/04/25 09:44:30;;;;;;;10.23;5.22;;;;;;;7.57;84.61;100597.81;5991143;28;20042;-68
2022/04/25 09:47:29;;;;;;;9.43;4.88;;;;;;;7.83;84.93;100597.41;6004997;28;20130;-69
2022/04/25 09:50:27;;;;;;;12.55;4.90;;;;;;;8.14;84.12;100594.63;6006815;28;20521;-69
2022/04/25 09:53:22;;;;;;;11.95;5.05;;;;;;;7.86;84.50;100600.59;6005238;28;20023;-69
2022/04/25 09:56:19;;;;;;;14.37;5.47;;;;;;;7.67;84.71;100603.16;5988834;28;20050;-68
2022/04/25 09:59:14;;;;;;;13.95;4.88;;;;;;;7.69;85.29;100595.97;6005244;28;20034;-69
2022/04/25 10:02:10;;;;;;;11.15;4.80;;;;;;;7.88;85.60;100601.31;6004479;28;20089;-69
2022/04/25 10:05:15;;;;;;;15.17;4.90;;;;;;;7.86;84.04;100603.25;6008524;28;20117;-68
2022/04/25 10:08:12;;;;;;;12.60;4.63;;;;;;;8.15;84.55;100609.50;6009496;28;20289;-69
2022/04/25 10:11:09;;;;;;;10.38;4.65;;;;;;;8.17;83.61;100610.22;6003766;28;20035;-68
2022/04/25 10:14:05;;;;;;;11.77;4.88;;;;;;;8.16;82.82;100613.81;5992188;28;20026;-68
2022/04/25 10:17:00;;;;;;;10.98;4.38;;;;;;;8.17;83.78;100619.94;6004391;28;20101;-69
2022/04/25 10:19:56;;;;;;;11.60;5.47;;;;;;;7.96;83.84;100614.72;6003462;28;20050;-69
2022/04/25 10:22:52;;;;;;;9.05;4.53;;;;;;;8.32;84.74;100629.19;5984511;28;20430;-68
2022/04/25 10:25:58;;;;;;;9.65;4.63;;;;;;;8.21;82.43;100630.09;6003510;28;20042;-69
2022/04/25 10:28:56;;;;;;;10.40;4.03;;;;;;;8.33;83.62;100631.72;5986844;28;20184;-68
2022/04/25 10:31:56;;;;;;;12.25;5.30;;;;;;;8.32;82.16;100631.84;6002900;28;20031;-69
2022/04/25 10:35:00;;;;;;;7.78;4.65;;;;;;;8.54;81.55;100630.78;5986121;28;20034;-69
2022/04/25 10:37:55;;;;;;;9.50;4.70;;;;;;;8.65;80.77;100633.31;6002647;28;20479;-69
2022/04/25 10:44:27;;;;;;;11.52;5.25;;;;;;;8.54;81.26;100636.06;6003576;28;20121;-69
2022/04/25 10:47:27;;;;;;;11.50;4.85;;;;;;;8.45;81.58;100636.91;5985519;28;20482;-69
2022/04/25 10:50:22;;;;;;;10.88;5.88;;;;;;;8.28;82.50;100643.66;5985098;28;20383;-69
2022/04/25 10:54:02;;;;;;;11.60;5.23;;;;;;;8.12;83.32;100640.63;6002426;28;20038;-69
2022/04/25 10:57:13;;;;;;;12.73;5.60;;;;;;;8.72;83.35;100645.03;6002727;28;20048;-69
2022/04/25 11:00:40;;;;;;;11.07;4.30;;;;;;;8.78;81.33;100649.75;5995222;28;20066;-69
2022/04/25 11:03:35;;;;;;;10.48;4.72;;;;;;;9.35;80.11;100649.81;5997112;28;20045;-69
2022/04/25 11:06:31;;;;;;;8.70;4.77;;;;;;;9.20;79.58;100653.03;6014661;28;20043;-69
2022/04/25 11:09:38;;;;;;;8.50;4.50;;;;;;;9.62;78.05;100650.94;6003072;28;20354;-69
2022/04/25 11:12:56;;;;;;;8.60;4.60;;;;;;;9.49;77.98;100657.34;6001977;28;20046;-69
2022/04/25 11:15:58;;;;;;;11.15;4.75;;;;;;;9.57;78.76;100649.53;6002993;28;20042;-69
2022/04/25 11:19:17;;;;;;;9.00;4.13;;;;;;;9.71;78.05;100658.00;6003033;28;20494;-69
2022/04/25 11:22:49;;;;;;;9.55;4.72;;;;;;;9.55;77.63;100646.19;6002534;28;20054;-69
2022/04/25 11:25:44;;;;;;;9.45;4.32;;;;;;;9.69;77.61;100652.03;6002993;28;20026;-69
2022/04/25 11:28:55;;;;;;;11.87;4.80;;;;;;;9.66;77.56;100660.25;6003287;28;20050;-69
2022/04/25 11:31:50;;;;;;;11.13;4.80;;;;;;;9.44;77.12;100659.59;6002318;28;20043;-69
2022/04/25 11:34:45;;;;;;;9.00;4.53;;;;;;;9.31;78.72;100669.63;6003364;28;20049;-69
2022/04/25 11:37:40;;;;;;;11.77;5.60;;;;;;;9.22;79.10;100675.72;5985743;28;20448;-69
2022/04/25 11:40:36;;;;;;;12.10;4.40;;;;;;;9.61;77.49;100667.78;6002485;28;20034;-69
2022/04/25 11:43:31;;;;;;;10.75;4.88;;;;;;;9.87;76.68;100666.19;6002800;28;20609;-69
2022/04/25 11:46:28;;;;;;;13.23;5.60;;;;;;;9.18;77.12;100669.06;6002815;28;20493;-68
2022/04/25 11:49:30;;;;;;;9.00;4.05;;;;;;;9.40;77.83;100676.69;6005977;28;20547;-69
2022/04/25 11:52:26;;;;;;;9.30;4.07;;;;;;;9.64;77.37;100670.16;6002060;28;20102;-69
2022/04/25 11:55:32;;;;;;;13.13;5.65;;;;;;;9.65;77.60;100682.44;6002902;28;20045;-68
2022/04/25 11:58:28;;;;;;;13.25;5.60;;;;;;;9.51;77.83;100681.84;6002683;28;20443;-69
2022/04/25 12:01:47;;;;;;;11.68;5.13;;;;;;;9.76;75.96;100687.53;6004586;28;20043;-69
2022/04/25 12:04:44;;;;;;;12.60;5.28;;;;;;;9.51;76.57;100681.03;6003016;28;20100;-69
2022/04/25 12:18:10;;;;;;;9.70;4.45;;;;;;;10.71;72.70;100699.69;5987619;28;20034;-69
2022/04/25 12:21:11;;;;;;;7.68;4.05;;;;;;;10.87;72.67;100697.22;5994642;28;20047;-69
2022/04/25 12:24:06;;;;;;;8.80;4.68;;;;;;;10.52;70.73;100695.31;6002375;28;20035;-69
2022/04/25 12:27:10;;;;;;;7.97;4.73;;;;;;;10.68;73.10;100700.03;6002337;28;20035;-69
2022/04/25 12:30:07;;;;;;;9.15;4.75;;;;;;;10.89;70.58;100703.25;6001434;28;20027;-69
2022/04/25 12:33:07;;;;;;;8.65;5.00;;;;;;;10.28;72.15;100702.94;6001384;28;20056;-68
2022/04/25 12:36:10;;;;;;;;;;;;;;;10.05;74.02;100701.59;6013076;28;20061;-68
2022/04/25 12:39:13;;;;;;;11.70;5.43;;;;;;;10.22;72.80;100705.34;6006526;28;19918;-68
2022/04/25 12:42:09;;;;;;;10.55;5.18;;;;;;;10.22;73.53;100703.50;6001320;28;20149;-68
2022/04/25 12:45:04;;;;;;;12.27;4.85;;;;;;;10.79;71.82;100696.34;5984801;28;20043;-68
2022/04/25 12:48:00;;;;;;;8.73;4.28;;;;;;;11.61;68.69;100695.19;6001212;28;20029;-68
2022/04/25 12:50:55;;;;;;;10.10;5.07;;;;;;;10.75;70.04;100695.78;6000338;28;20038;-68
2022/04/25 12:53:50;;;;;;;9.37;5.10;;;;;;;11.31;69.50;100695.56;6000996;28;20026;-68
2022/04/25 12:56:46;;;;;;;10.43;5.20;;;;;;;11.21;68.37;100698.28;6001283;28;20039;-68
2022/04/25 12:59:42;;;;;;;12.43;6.78;;;;;;;11.06;68.95;100697.13;6001612;28;20430;-69
2022/04/25 13:02:39;;;;;;;14.57;5.95;;;;;;;10.96;69.74;100692.84;6000433;28;20035;-68
2022/04/25 13:05:35;;;;;;;13.18;5.70;;;;;;;11.34;69.43;100697.91;6001955;28;20542;-69
2022/04/25 13:08:30;;;;;;;11.00;5.93;;;;;;;12.00;65.89;100700.16;6001047;28;20070;-69
2022/04/25 13:11:25;;;;;;;9.87;5.27;;;;;;;12.04;65.53;100691.72;6001581;28;20080;-69
2022/04/25 13:14:21;;;;;;;8.73;4.93;;;;;;;12.81;64.27;100691.63;6001697;28;20511;-68
2022/04/25 13:17:16;;;;;;;13.17;5.67;;;;;;;13.10;63.51;100686.75;6004860;28;20621;-69
2022/04/25 13:20:16;;;;;;;14.93;6.75;;;;;;;12.41;62.70;100688.78;6004460;28;20063;-67
2022/04/25 13:23:12;;;;;;;;;;;;;;;12.07;64.38;100694.06;6006164;28;20039;-68
2022/04/25 13:26:09;;;;;;;10.47;5.77;;;;;;;12.57;63.46;100688.88;6004034;28;19921;-68
2022/04/25 13:29:04;;;;;;;10.05;6.00;;;;;;;12.51;64.05;100689.50;6005079;28;20499;-68
2022/04/25 13:32:00;;;;;;;9.87;5.53;;;;;;;12.61;63.21;100690.19;6003493;28;20031;-68
2022/04/25 13:34:55;;;;;;;12.43;5.68;;;;;;;12.59;64.26;100686.88;6005237;28;20034;-69
2022/04/25 13:37:50;;;;;;;11.27;6.13;;;;;;;13.17;65.54;100699.41;6004761;28;20040;-69
2022/04/25 13:40:47;;;;;;;9.87;5.70;;;;;;;12.75;62.72;100691.41;6004318;28;20757;-68
2022/04/25 13:43:44;;;;;;;10.60;6.00;;;;;;;12.88;61.58;100689.97;6004509;28;20041;-68
2022/04/25 13:46:39;;;;;;;12.52;6.57;;;;;;;12.33;63.82;100692.25;6004685;28;20026;-68
2022/04/25 13:49:34;;;;;;;15.50;5.77;;;;;;;11.89;64.64;100685.31;6004656;28;20034;-68
2022/04/25 13:52:30;;;;;;;10.33;6.40;;;;;;;11.90;65.88;100690.44;6003285;28;20285;-68
2022/04/25 13:55:25;;;;;;;13.93;6.47;;;;;;;11.90;65.09;100690.44;6004524;28;20074;-68
2022/04/25 13:58:20;;;;;;;13.37;6.57;;;;;;;11.90;65.65;100687.78;6002309;28;20030;-69
2022/04/25 14:01:16;;;;;;;12.67;6.77;;;;;;;12.77;64.84;100676.16;6003863;28;20641;-68
2022/04/25 14:04:11;;;;;;;11.80;6.20;;;;;;;13.32;62.30;100679.13;6004599;28;20105;-69
2022/04/25 14:07:08;;;;;;;15.50;6.20;;;;;;;14.08;63.16;100677.78;6005152;28;20038;-69
2022/04/25 14:10:04;;;;;;;11.52;5.75;;;;;;;14.28;58.10;100673.75;6003032;28;20482;-69
2022/04/25 14:12:59;;;;;;;9.75;5.88;;;;;;;14.42;57.74;100674.06;6006036;28;20501;-69
2022/04/25 14:15:54;;;;;;;9.67;6.03;;;;;;;13.91;58.23;100676.16;6003618;28;20034;-68
2022/04/25 14:18:50;;;;;;;10.60;5.53;;;;;;;13.81;59.14;100670.16;6003536;28;20281;-69
2022/04/25 14:21:45;;;;;;;11.83;6.20;;;;;;;13.92;59.20;100675.16;6003590;28;20058;-68
2022/04/25 14:24:40;;;;;;;11.00;5.88;;;;;;;13.32;60.55;100669.31;6003633;28;20034;-68
2022/04/25 14:27:38;;;;;;;12.37;5.93;;;;;;;12.77;62.31;100677.00;6002673;28;20042;-68
2022/04/25 14:30:33;;;;;;;11.93;7.03;;;;;;;12.44;63.07;100667.19;6003073;28;20394;-69